Time;durP1;ratioP1;P1;durP2;ratioP2;P2;SDS_P1;SDS_P2;PMS_P1;PMS_P2;Temp;Humidity;BMP_temperature;BMP_pressure;BME280_temperature;BME280_humidity;BME280_pressure;Samples;Min_cycle;Max_cycle;Signal;HPM_P1;HPM_P2
2023/04/13 00:00:12;;;;;;;8.50;2.20;;;;;;;;;;5063332;28;20040;-61
2023/04/13 00:02:39;;;;;;;6.20;2.43;;;;;;;;;;5064079;28;20071;-61
2023/04/13 00:05:09;;;;;;;5.40;2.33;;;;;;;;;;5060171;28;20724;-59
2023/04/13 00:07:39;;;;;;;3.97;1.83;;;;;;;;;;5060905;28;20158;-60
2023/04/13 00:10:09;;;;;;;7.57;2.73;;;;;;;;;;5057748;28;20040;-60
2023/04/13 00:12:47;;;;;;;5.43;2.80;;;;;;;;;;5059537;28;20037;-60
2023/04/13 00:15:14;;;;;;;5.90;2.40;;;;;;;;;;5051475;28;20052;-60
2023/04/13 00:17:44;;;;;;;6.37;2.20;;;;;;;;;;5050311;28;20048;-60
2023/04/13 00:20:12;;;;;;;6.07;2.47;;;;;;;;;;5051084;28;20049;-60
2023/04/13 00:22:39;;;;;;;5.07;2.67;;;;;;;;;;5051320;28;20060;-60
2023/04/13 00:25:05;;;;;;;8.07;2.80;;;;;;;;;;5050243;28;20055;-62
2023/04/13 00:27:31;;;;;;;6.23;3.13;;;;;;;;;;5050673;28;20072;-62
2023/04/13 00:29:57;;;;;;;5.63;2.97;;;;;;;;;;5050837;28;20063;-63
2023/04/13 00:32:25;;;;;;;7.47;2.37;;;;;;;;;;5050949;28;20052;-63
2023/04/13 00:34:51;;;;;;;6.13;2.40;;;;;;;;;;5050635;28;20530;-63
2023/04/13 00:37:18;;;;;;;4.70;2.23;;;;;;;;;;5067967;28;20052;-63
2023/04/13 00:39:45;;;;;;;9.30;2.70;;;;;;;;;;5070036;28;20567;-63
2023/04/13 00:42:11;;;;;;;8.40;3.40;;;;;;;;;;5070823;28;20141;-64
2023/04/13 00:44:38;;;;;;;6.17;2.77;;;;;;;;;;5064893;28;20040;-63
2023/04/13 00:47:04;;;;;;;8.00;2.37;;;;;;;;;;5050888;28;20107;-63
2023/04/13 00:49:32;;;;;;;5.30;2.20;;;;;;;;;;5050448;28;20055;-63
2023/04/13 00:52:00;;;;;;;7.53;3.10;;;;;;;;;;5049976;28;20718;-63
2023/04/13 00:54:28;;;;;;;7.30;3.10;;;;;;;;;;5049720;28;20115;-63
2023/04/13 00:56:54;;;;;;;6.23;3.10;;;;;;;;;;5051197;28;20122;-63
2023/04/13 00:59:20;;;;;;;7.80;3.40;;;;;;;;;;5068659;28;20124;-63
2023/04/13 01:01:49;;;;;;;7.80;2.87;;;;;;;;;;5065837;28;20041;-63
2023/04/13 01:04:19;;;;;;;8.13;4.07;;;;;;;;;;5049954;28;20040;-63
2023/04/13 01:07:04;;;;;;;5.70;3.50;;;;;;;;;;5062528;28;20449;-63
2023/04/13 01:09:34;;;;;;;6.10;3.60;;;;;;;;;;5069941;28;20052;-63
2023/04/13 01:12:12;;;;;;;4.90;3.10;;;;;;;;;;5069777;28;20055;-63
2023/04/13 01:14:48;;;;;;;7.80;3.47;;;;;;;;;;5069677;28;20062;-63
2023/04/13 01:17:16;;;;;;;7.43;3.40;;;;;;;;;;5068820;28;20041;-63
2023/04/13 01:20:00;;;;;;;4.67;2.80;;;;;;;;;;5060901;28;20147;-63
2023/04/13 01:22:29;;;;;;;8.82;2.90;;;;;;;;;;5049377;28;20045;-63
2023/04/13 01:25:07;;;;;;;10.27;3.73;;;;;;;;;;5050099;28;20079;-63
2023/04/13 01:27:50;;;;;;;6.20;2.57;;;;;;;;;;5048916;28;20064;-63
2023/04/13 01:30:21;;;;;;;6.78;2.85;;;;;;;;;;5049304;28;20056;-63
2023/04/13 01:32:47;;;;;;;6.30;2.93;;;;;;;;;;5062500;28;20098;-63
2023/04/13 01:35:13;;;;;;;5.03;2.53;;;;;;;;;;5066941;28;20044;-63
2023/04/13 01:37:44;;;;;;;7.83;2.60;;;;;;;;;;5069062;28;20041;-64
2023/04/13 01:40:11;;;;;;;5.07;2.37;;;;;;;;;;5069329;28;20041;-63
2023/04/13 01:42:41;;;;;;;7.57;2.07;;;;;;;;;;5068752;28;20609;-63
2023/04/13 01:45:11;;;;;;;10.07;3.13;;;;;;;;;;5067264;28;20048;-63
2023/04/13 01:47:38;;;;;;;7.73;2.57;;;;;;;;;;5068101;28;20099;-64
2023/04/13 01:50:10;;;;;;;5.70;2.30;;;;;;;;;;5069260;28;20049;-64
2023/04/13 01:52:39;;;;;;;3.87;1.97;;;;;;;;;;5069257;28;20070;-63
2023/04/13 01:55:06;;;;;;;6.57;2.13;;;;;;;;;;5066865;28;20506;-63
2023/04/13 01:57:34;;;;;;;7.37;2.10;;;;;;;;;;5068758;28;20546;-63
2023/04/13 02:00:13;;;;;;;4.13;1.93;;;;;;;;;;5068508;28;20094;-63
2023/04/13 02:02:39;;;;;;;8.37;2.13;;;;;;;;;;5066605;28;20495;-63
2023/04/13 02:05:08;;;;;;;7.03;2.00;;;;;;;;;;5068968;28;20052;-63
2023/04/13 02:07:34;;;;;;;6.87;2.60;;;;;;;;;;5068512;28;20118;-62
2023/04/13 02:10:00;;;;;;;9.17;2.43;;;;;;;;;;5054194;28;20051;-65
2023/04/13 02:12:26;;;;;;;5.87;2.20;;;;;;;;;;5048833;28;20154;-65
2023/04/13 02:14:52;;;;;;;6.43;2.13;;;;;;;;;;5048849;28;20127;-64
2023/04/13 02:17:18;;;;;;;4.50;1.83;;;;;;;;;;5048307;28;20052;-64
2023/04/13 02:19:45;;;;;;;6.90;2.33;;;;;;;;;;5059150;28;20059;-62
2023/04/13 02:22:12;;;;;;;8.27;2.30;;;;;;;;;;5067371;28;20081;-63
2023/04/13 02:24:39;;;;;;;5.97;2.40;;;;;;;;;;5068224;28;20078;-63
2023/04/13 02:27:05;;;;;;;7.43;3.33;;;;;;;;;;5067369;28;20572;-64
2023/04/13 02:29:31;;;;;;;10.13;2.87;;;;;;;;;;5067079;28;20041;-63
2023/04/13 02:31:57;;;;;;;8.63;2.57;;;;;;;;;;5068911;28;20048;-63
2023/04/13 02:34:23;;;;;;;6.93;2.30;;;;;;;;;;5057289;28;20055;-63
2023/04/13 02:36:49;;;;;;;7.60;2.90;;;;;;;;;;5048670;28;20044;-63
2023/04/13 02:39:15;;;;;;;9.30;2.43;;;;;;;;;;5048531;28;20179;-63
2023/04/13 02:41:41;;;;;;;6.10;2.60;;;;;;;;;;5048164;28;20076;-63
2023/04/13 02:44:08;;;;;;;8.13;2.80;;;;;;;;;;5054950;28;20604;-63
2023/04/13 02:46:34;;;;;;;5.93;3.07;;;;;;;;;;5066967;28;20074;-64
2023/04/13 02:49:00;;;;;;;7.20;3.40;;;;;;;;;;5067980;28;20522;-64
2023/04/13 02:51:26;;;;;;;5.63;3.17;;;;;;;;;;5068163;28;20052;-64
2023/04/13 02:53:54;;;;;;;5.70;2.73;;;;;;;;;;5068101;28;20049;-63
2023/04/13 02:56:22;;;;;;;14.13;5.67;;;;;;;;;;5068143;28;20090;-65
2023/04/13 02:58:48;;;;;;;5.90;3.20;;;;;;;;;;5050721;28;20053;-63
2023/04/13 03:01:15;;;;;;;11.60;4.63;;;;;;;;;;5048084;28;20044;-63
2023/04/13 03:03:41;;;;;;;9.07;3.97;;;;;;;;;;5047981;28;20057;-64
2023/04/13 03:06:07;;;;;;;7.90;3.83;;;;;;;;;;5048651;28;20057;-64
2023/04/13 03:08:34;;;;;;;7.07;4.00;;;;;;;;;;5047108;28;20103;-64
2023/04/13 03:11:00;;;;;;;12.03;5.20;;;;;;;;;;5046947;28;20546;-64
2023/04/13 03:13:26;;;;;;;8.60;4.20;;;;;;;;;;5057504;28;20040;-64
2023/04/13 03:15:53;;;;;;;10.57;5.07;;;;;;;;;;5053270;28;20049;-64
2023/04/13 03:18:19;;;;;;;9.47;4.47;;;;;;;;;;5048295;28;20056;-63
2023/04/13 03:20:45;;;;;;;11.43;4.80;;;;;;;;;;5046951;28;20091;-63
2023/04/13 03:23:11;;;;;;;15.67;5.30;;;;;;;;;;5061994;28;20127;-64
2023/04/13 03:25:38;;;;;;;17.10;6.00;;;;;;;;;;5067939;28;20051;-64
2023/04/13 03:28:04;;;;;;;10.00;5.43;;;;;;;;;;5067545;28;20724;-64
2023/04/13 03:30:30;;;;;;;11.13;5.40;;;;;;;;;;5068952;28;20133;-64
2023/04/13 03:32:56;;;;;;;8.60;4.93;;;;;;;;;;5059887;28;20041;-63
2023/04/13 03:35:22;;;;;;;15.13;5.90;;;;;;;;;;5064956;28;20503;-64
2023/04/13 03:37:49;;;;;;;13.23;5.97;;;;;;;;;;5071389;28;20567;-64
2023/04/13 03:40:15;;;;;;;9.80;5.93;;;;;;;;;;5069028;28;20048;-63
2023/04/13 03:42:41;;;;;;;12.30;5.40;;;;;;;;;;5069401;28;20048;-63
2023/04/13 03:45:07;;;;;;;10.57;5.67;;;;;;;;;;5071003;28;20053;-63
2023/04/13 03:47:33;;;;;;;9.97;5.50;;;;;;;;;;5060770;28;20044;-64
2023/04/13 03:49:59;;;;;;;9.10;5.40;;;;;;;;;;5051243;28;20053;-64
2023/04/13 03:52:25;;;;;;;9.13;4.93;;;;;;;;;;5051294;28;20061;-63
2023/04/13 03:54:51;;;;;;;12.60;5.87;;;;;;;;;;5051159;28;20115;-64
2023/04/13 03:57:17;;;;;;;12.60;5.73;;;;;;;;;;5051271;28;20404;-63
2023/04/13 03:59:43;;;;;;;9.70;4.60;;;;;;;;;;5051792;28;20045;-63
2023/04/13 04:02:09;;;;;;;8.67;4.80;;;;;;;;;;5052045;28;20129;-63
2023/04/13 04:04:36;;;;;;;10.53;4.83;;;;;;;;;;5052079;28;20041;-63
2023/04/13 04:07:02;;;;;;;9.23;4.50;;;;;;;;;;5051952;28;20136;-63
2023/04/13 04:09:28;;;;;;;7.17;4.33;;;;;;;;;;5070444;28;20074;-64
2023/04/13 04:11:55;;;;;;;9.03;4.13;;;;;;;;;;5056761;28;20067;-63
2023/04/13 04:14:22;;;;;;;10.80;4.80;;;;;;;;;;5051762;28;20052;-63
2023/04/13 04:16:48;;;;;;;8.30;4.77;;;;;;;;;;5052125;28;20419;-63
2023/04/13 04:19:14;;;;;;;11.90;4.67;;;;;;;;;;5052075;28;20489;-63
2023/04/13 04:21:43;;;;;;;11.03;5.60;;;;;;;;;;5052088;28;20475;-64
2023/04/13 04:24:21;;;;;;;11.20;5.13;;;;;;;;;;5051239;28;20060;-63
2023/04/13 04:26:53;;;;;;;6.47;4.30;;;;;;;;;;5054855;28;20045;-63
2023/04/13 04:29:32;;;;;;;8.83;4.60;;;;;;;;;;5053263;28;20134;-63
2023/04/13 04:31:58;;;;;;;7.47;4.57;;;;;;;;;;5069898;28;20056;-63
2023/04/13 04:34:24;;;;;;;12.00;6.37;;;;;;;;;;5054391;28;20044;-63
2023/04/13 04:36:51;;;;;;;13.10;5.30;;;;;;;;;;5071428;28;20414;-63
2023/04/13 04:39:21;;;;;;;11.57;5.80;;;;;;;;;;5071351;28;20095;-64
2023/04/13 04:41:53;;;;;;;12.03;6.10;;;;;;;;;;5070351;28;20098;-64
2023/04/13 04:44:29;;;;;;;14.83;6.43;;;;;;;;;;5070160;28;20052;-63
2023/04/13 04:46:57;;;;;;;10.53;6.13;;;;;;;;;;5071018;28;20047;-63
2023/04/13 04:49:24;;;;;;;11.13;5.37;;;;;;;;;;5071321;28;20085;-63
2023/04/13 04:51:50;;;;;;;10.20;5.30;;;;;;;;;;5071420;28;20048;-63
2023/04/13 04:54:18;;;;;;;11.97;5.33;;;;;;;;;;5070004;28;20051;-64
2023/04/13 04:56:44;;;;;;;9.73;5.57;;;;;;;;;;5051109;28;20095;-63
2023/04/13 04:59:11;;;;;;;13.03;5.40;;;;;;;;;;5050753;28;20053;-63
2023/04/13 05:01:37;;;;;;;12.50;6.43;;;;;;;;;;5056525;28;20087;-63
2023/04/13 05:04:03;;;;;;;10.30;5.70;;;;;;;;;;5053821;28;20120;-63
2023/04/13 05:06:31;;;;;;;19.93;6.37;;;;;;;;;;5055976;28;20094;-63
2023/04/13 05:08:58;;;;;;;12.37;6.53;;;;;;;;;;5055774;28;20068;-63
2023/04/13 05:11:25;;;;;;;15.77;6.00;;;;;;;;;;5050144;28;20514;-63
2023/04/13 05:13:51;;;;;;;12.23;6.03;;;;;;;;;;5059892;28;20044;-63
2023/04/13 05:16:17;;;;;;;13.37;6.77;;;;;;;;;;5051867;28;20427;-63
2023/04/13 05:18:44;;;;;;;15.67;6.97;;;;;;;;;;5050842;28;20052;-63
2023/04/13 05:21:11;;;;;;;15.93;6.77;;;;;;;;;;5055494;28;20048;-64
2023/04/13 05:23:37;;;;;;;13.33;6.50;;;;;;;;;;5061557;28;20048;-63
2023/04/13 05:26:03;;;;;;;10.37;6.17;;;;;;;;;;5063848;28;20346;-63
2023/04/13 05:28:30;;;;;;;13.20;6.53;;;;;;;;;;5054470;28;20559;-63
2023/04/13 05:31:03;;;;;;;13.93;6.40;;;;;;;;;;5056916;28;20125;-65
2023/04/13 05:33:29;;;;;;;12.38;6.70;;;;;;;;;;5061303;28;20040;-65
2023/04/13 05:35:55;;;;;;;19.13;7.00;;;;;;;;;;5059927;28;20518;-63
2023/04/13 05:38:22;;;;;;;13.20;6.80;;;;;;;;;;5050934;28;20145;-64
2023/04/13 05:40:48;;;;;;;16.77;7.03;;;;;;;;;;5050995;28;20152;-64
2023/04/13 05:43:14;;;;;;;16.33;7.37;;;;;;;;;;5051400;28;20059;-65
2023/04/13 05:45:40;;;;;;;17.50;7.93;;;;;;;;;;5054044;28;20086;-64
2023/04/13 05:48:06;;;;;;;21.73;8.67;;;;;;;;;;5053408;28;20051;-64
2023/04/13 05:50:32;;;;;;;16.87;8.77;;;;;;;;;;5056604;28;20044;-64
2023/04/13 05:52:58;;;;;;;16.10;8.83;;;;;;;;;;5057211;28;20083;-63
2023/04/13 05:55:26;;;;;;;16.90;7.90;;;;;;;;;;5054825;28;20041;-64
2023/04/13 05:57:52;;;;;;;20.67;8.20;;;;;;;;;;5070245;28;20068;-64
2023/04/13 06:00:20;;;;;;;17.80;8.37;;;;;;;;;;5060312;28;20124;-64
2023/04/13 06:02:49;;;;;;;16.43;8.83;;;;;;;;;;5049258;28;20124;-62
2023/04/13 06:05:16;;;;;;;19.90;8.60;;;;;;;;;;5057494;28;20093;-65
2023/04/13 06:07:43;;;;;;;17.83;8.47;;;;;;;;;;5064482;28;20037;-64
2023/04/13 06:10:10;;;;;;;16.67;8.00;;;;;;;;;;5057968;28;20048;-64
2023/04/13 06:12:37;;;;;;;14.67;7.47;;;;;;;;;;5069487;28;20083;-64
2023/04/13 06:15:03;;;;;;;14.93;7.57;;;;;;;;;;5069483;28;20052;-63
2023/04/13 06:17:29;;;;;;;15.77;7.27;;;;;;;;;;5068229;28;20040;-64
2023/04/13 06:19:55;;;;;;;16.10;7.30;;;;;;;;;;5066087;28;20094;-63
2023/04/13 06:22:21;;;;;;;14.73;7.90;;;;;;;;;;5049234;28;20586;-63
2023/04/13 06:24:49;;;;;;;14.97;6.73;;;;;;;;;;5046342;28;20041;-63
2023/04/13 06:27:15;;;;;;;16.03;7.13;;;;;;;;;;5046941;28;20048;-63
2023/04/13 06:29:41;;;;;;;13.20;6.43;;;;;;;;;;5059736;28;20059;-63
2023/04/13 06:32:08;;;;;;;15.53;6.20;;;;;;;;;;5067804;28;20062;-63
2023/04/13 06:34:34;;;;;;;13.03;6.77;;;;;;;;;;5067663;28;20048;-63
2023/04/13 06:37:01;;;;;;;11.10;6.20;;;;;;;;;;5068244;28;20052;-64
2023/04/13 06:39:27;;;;;;;10.37;5.37;;;;;;;;;;5066821;28;20051;-64
2023/04/13 06:41:53;;;;;;;10.73;6.53;;;;;;;;;;5069317;28;20110;-63
2023/04/13 06:44:19;;;;;;;13.90;6.53;;;;;;;;;;5050500;28;20048;-63
2023/04/13 06:46:45;;;;;;;15.57;5.93;;;;;;;;;;5049071;28;20041;-63
2023/04/13 06:49:12;;;;;;;10.83;6.17;;;;;;;;;;5046853;28;20057;-64
2023/04/13 06:51:38;;;;;;;12.83;5.33;;;;;;;;;;5050357;28;20056;-63
2023/04/13 06:54:04;;;;;;;10.87;5.97;;;;;;;;;;5049252;28;20056;-63
2023/04/13 06:56:31;;;;;;;10.73;5.97;;;;;;;;;;5057197;28;20059;-63
2023/04/13 06:59:00;;;;;;;12.40;6.03;;;;;;;;;;5061416;28;20074;-64
2023/04/13 07:01:26;;;;;;;11.90;5.97;;;7.90;99.90;;;;;;5050084;28;20059;-63
2023/04/13 07:03:52;;;;;;;11.33;5.73;;;7.50;99.90;;;;;;5059078;28;20048;-63
2023/04/13 07:06:19;;;;;;;12.40;5.93;;;7.30;99.90;;;;;;5054719;28;20044;-63
2023/04/13 07:08:45;;;;;;;13.70;5.47;;;7.40;99.90;;;;;;5053459;28;20056;-64
2023/04/13 07:11:12;;;;;;;6.67;4.30;;;7.50;99.90;;;;;;5051969;28;20160;-63
2023/04/13 07:13:38;;;;;;;9.67;5.00;;;7.60;99.90;;;;;;5054032;28;20049;-64
2023/04/13 07:16:04;;;;;;;12.97;5.00;;;7.60;99.90;;;;;;5055718;28;20029;-64
2023/04/13 07:18:30;;;;;;;13.30;5.50;;;7.60;99.90;;;;;;5053029;28;20048;-63
2023/04/13 07:20:56;;;;;;;12.40;4.33;;;7.70;99.90;;;;;;5052566;28;20049;-64
2023/04/13 07:23:22;;;;;;;9.93;5.10;;;7.60;99.90;;;;;;5052049;28;20048;-64
2023/04/13 07:25:48;;;;;;;11.40;5.60;;;7.50;99.90;;;;;;5053063;28;20495;-63
2023/04/13 07:28:13;;;;;;;11.60;4.60;;;7.60;99.90;;;;;;5052252;28;20114;-63
2023/04/13 07:30:43;;;;;;;10.93;4.10;;;7.80;99.90;;;;;;5053134;28;20048;-64
2023/04/13 07:33:09;;;;;;;10.80;3.87;;;7.50;99.90;;;;;;5055830;28;20545;-64
2023/04/13 07:35:38;;;;;;;11.40;4.03;;;7.40;99.90;;;;;;5057365;28;20174;-63
2023/04/13 07:38:04;;;;;;;11.50;4.10;;;7.40;99.90;;;;;;5055984;28;20040;-64
2023/04/13 07:40:30;;;;;;;8.33;2.90;;;7.40;99.90;;;;;;5052742;28;20037;-64
2023/04/13 07:42:56;;;;;;;15.47;3.53;;;7.50;99.90;;;;;;5053432;28;20080;-64
2023/04/13 07:45:21;;;;;;;11.43;3.70;;;7.40;99.90;;;;;;5052940;28;20518;-64
2023/04/13 07:47:47;;;;;;;8.03;3.03;;;7.50;99.90;;;;;;5063756;28;20117;-64
2023/04/13 07:50:14;;;;;;;6.27;2.63;;;;;;;;;;5062428;28;20045;-64
2023/04/13 07:52:40;;;;;;;10.43;3.33;;;;;;;;;;5051995;28;20407;-64
2023/04/13 07:55:06;;;;;;;5.60;2.47;;;;;;;;;;5057094;28;20106;-63
2023/04/13 07:57:33;;;;;;;7.37;2.37;;;;;;;;;;5066279;28;20060;-63
2023/04/13 07:59:59;;;;;;;7.63;2.07;;;;;;;;;;5052586;28;20071;-62
2023/04/13 08:02:25;;;;;;;7.90;2.80;;;;;;;;;;5054223;28;20418;-62
2023/04/13 08:04:51;;;;;;;8.27;3.03;;;;;;;;;;5052084;28;20052;-62
2023/04/13 08:07:18;;;;;;;7.63;2.83;;;;;;;;;;5052212;28;20092;-62
2023/04/13 08:09:45;;;;;;;5.87;2.00;;;;;;;;;;5052342;28;20094;-62
2023/04/13 08:12:11;;;;;;;6.50;2.73;;;;;;;;;;5051587;28;20052;-62
2023/04/13 08:14:37;;;;;;;6.90;2.13;;;;;;;;;;5049953;28;20156;-62
2023/04/13 08:17:04;;;;;;;5.93;2.00;;;;;;;;;;5057158;28;20508;-62
2023/04/13 08:19:31;;;;;;;5.77;2.30;;;;;;;;;;5069982;28;20415;-62
2023/04/13 08:21:58;;;;;;;8.37;2.77;;;;;;;;;;5060330;28;20075;-62
2023/04/13 08:24:24;;;;;;;8.93;3.30;;;;;;;;;;5053772;28;20057;-62
2023/04/13 08:26:56;;;;;;;11.30;3.97;;;;;;;;;;5062137;28;20118;-62
2023/04/13 08:29:23;;;;;;;9.87;4.10;;;;;;;;;;5057358;28;20102;-62
2023/04/13 08:31:49;;;;;;;7.57;3.60;;;;;;;;;;5053698;28;20049;-62
2023/04/13 08:34:16;;;;;;;8.03;4.23;;;;;;;;;;5058562;28;20057;-62
2023/04/13 08:36:44;;;;;;;14.30;5.50;;;;;;;;;;5052970;28;20569;-63
2023/04/13 08:39:11;;;;;;;12.70;4.43;;;;;;;;;;5057310;28;20091;-63
2023/04/13 08:41:37;;;;;;;8.03;3.90;;;;;;;;;;5059161;28;20051;-63
2023/04/13 08:44:07;;;;;;;9.37;3.77;;;;;;;;;;5061738;28;20052;-63
2023/04/13 08:46:33;;;;;;;9.33;3.40;;;;;;;;;;5056761;28;20578;-63
2023/04/13 08:49:03;;;;;;;9.17;3.80;;;;;;;;;;5051451;28;20087;-63
2023/04/13 08:51:32;;;;;;;8.50;4.23;;;;;;;;;;5053037;28;20118;-63
2023/04/13 08:53:59;;;;;;;10.17;3.90;;;;;;;;;;5050965;28;20048;-63
2023/04/13 08:56:26;;;;;;;6.13;2.87;;;;;;;;;;5057335;28;20041;-63
2023/04/13 08:58:57;;;;;;;8.03;2.27;;;;;;;;;;5052068;28;20067;-63
2023/04/13 09:01:25;;;;;;;4.83;1.43;;;;;;;;;;5050651;28;20134;-62
2023/04/13 09:03:55;;;;;;;5.63;1.10;;;;;;;;;;5051081;28;20049;-62
2023/04/13 09:06:26;;;;;;;4.13;1.10;;;;;;;;;;5050698;28;20059;-63
2023/04/13 09:08:56;;;;;;;3.97;1.70;;;;;;;;;;5055063;28;20048;-63
2023/04/13 09:11:22;;;;;;;5.47;1.30;;;;;;;;;;5061874;28;20120;-62
2023/04/13 09:13:49;;;;;;;3.83;1.00;;;;;;;;;;5069700;28;20041;-63
2023/04/13 09:16:16;;;;;;;4.80;1.33;;;;;;;;;;5068046;28;20441;-63
2023/04/13 09:18:51;;;;;;;5.93;1.40;;;;;;;;;;5064684;28;20098;-63
2023/04/13 09:21:18;;;;;;;8.57;1.60;;;;;;;;;;5069795;28;20056;-64
2023/04/13 09:23:56;;;;;;;7.57;2.30;;;;;;;;;;5068419;28;20086;-64
2023/04/13 09:26:22;;;;;;;20.57;2.90;;;;;;;;;;5070109;28;20166;-65
2023/04/13 09:28:50;;;;;;;22.57;3.37;;;;;;;;;;5068209;28;20061;-64
2023/04/13 09:31:16;;;;;;;15.70;3.90;;;;;;;;;;5066228;28;20048;-64
2023/04/13 09:33:46;;;;;;;6.60;1.63;;;;;;;;;;5068635;28;20056;-63
2023/04/13 09:36:13;;;;;;;2.40;0.90;;;;;;;;;;5066993;28;20112;-64
2023/04/13 09:38:39;;;;;;;5.77;1.20;;;;;;;;;;5066282;28;20396;-64
2023/04/13 09:41:07;;;;;;;5.10;1.50;;;;;;;;;;5059019;28;20048;-63
2023/04/13 09:43:36;;;;;;;5.83;1.60;;;;;;;;;;5056307;28;20064;-63
2023/04/13 09:46:03;;;;;;;7.57;1.83;;;;;;;;;;5061024;28;20036;-63
2023/04/13 09:48:29;;;;;;;5.67;1.30;;;;;;;;;;5064089;28;20052;-63
2023/04/13 09:51:03;;;;;;;9.17;2.10;;;;;;;;;;5069514;28;20044;-63
2023/04/13 09:53:45;;;;;;;8.60;2.03;;;;;;;;;;5067263;28;20052;-63
2023/04/13 09:56:11;;;;;;;9.00;2.10;;;;;;;;;;5070313;28;20055;-63
2023/04/13 09:58:42;;;;;;;10.23;2.40;;;;;;;;;;5065789;28;20059;-64
2023/04/13 10:01:09;;;;;;;13.90;2.33;;;;;;;;;;5068277;28;20056;-63
2023/04/13 10:03:36;;;;;;;9.77;2.00;;;;;;;;;;5057320;28;20051;-63
2023/04/13 10:06:05;;;;;;;13.53;2.10;;;;;;;;;;5055955;28;20051;-63
2023/04/13 10:08:32;;;;;;;11.40;1.83;;;;;;;;;;5063947;28;20056;-63
2023/04/13 10:11:00;;;;;;;13.20;2.60;;;;;;;;;;5062349;28;20040;-63
2023/04/13 10:13:29;;;;;;;11.43;3.70;;;;;;;;;;5068703;28;20052;-63
2023/04/13 10:16:01;;;;;;;14.47;2.30;;;;;;;;;;5054990;28;20041;-63
2023/04/13 10:18:42;;;;;;;13.50;3.20;;;;;;;;;;5068200;28;20036;-62
2023/04/13 10:21:09;;;;;;;17.63;3.03;;;;;;;;;;5068439;28;20052;-63
2023/04/13 10:23:37;;;;;;;15.00;2.50;;;;;;;;;;5062647;28;20059;-62
2023/04/13 10:26:05;;;;;;;9.80;2.37;;;;;;;;;;5056930;28;20048;-62
2023/04/13 10:29:01;;;;;;;17.70;3.20;;;;;;;;;;5067778;28;20060;-63
2023/04/13 10:31:36;;;;;;;13.37;2.60;;;;;;;;;;5059583;28;20045;-63
2023/04/13 10:34:04;;;;;;;13.13;2.43;;;;;;;;;;5060333;28;20056;-62
2023/04/13 10:36:37;;;;;;;13.77;2.47;;;;;;;;;;5061056;28;20040;-63
2023/04/13 10:39:03;;;;;;;17.23;2.72;;;;;;;;;;5060504;28;20076;-62
2023/04/13 10:41:29;;;;;;;17.43;2.63;;;;;;;;;;5065077;28;20044;-62
2023/04/13 10:44:14;;;;;;;15.63;2.80;;;;;;;;;;5071105;28;20049;-62
2023/04/13 10:46:49;;;;;;;13.10;3.47;;;;;;;;;;5057829;28;20060;-62
2023/04/13 10:49:16;;;;;;;12.13;2.73;;;;;;;;;;5059608;28;20448;-62
2023/04/13 10:51:43;;;;;;;13.97;2.90;;;;;;;;;;5069845;28;20045;-62
2023/04/13 10:54:09;;;;;;;10.93;2.57;;;;;;;;;;5069482;28;20044;-62
2023/04/13 10:56:36;;;;;;;14.47;2.60;;;;;;;;;;5069107;28;20052;-62
2023/04/13 10:59:03;;;;;;;13.60;2.60;;;;;;;;;;5070393;28;20037;-62
2023/04/13 11:01:30;;;;;;;9.47;2.70;;;;;;;;;;5063462;28;20132;-62
2023/04/13 11:03:58;;;;;;;15.87;2.63;;;;;;;;;;5054795;28;20040;-63
2023/04/13 11:06:25;;;;;;;15.03;2.57;;;;;;;;;;5069957;28;20048;-63
2023/04/13 11:08:58;;;;;;;17.20;2.73;;;;;;;;;;5067117;28;20044;-63
2023/04/13 11:11:25;;;;;;;16.70;2.50;;;;;;;;;;5069263;28;20039;-62
2023/04/13 11:13:51;;;;;;;11.23;2.07;;;;;;;;;;5061574;28;20049;-62
2023/04/13 11:16:17;;;;;;;14.50;2.43;;;;;;;;;;5064141;28;20044;-62
2023/04/13 11:18:43;;;;;;;21.07;2.70;;;;;;;;;;5069071;28;20103;-62
2023/04/13 11:21:16;;;;;;;16.13;2.37;;;;;;;;;;5061303;28;20095;-62
2023/04/13 11:23:50;;;;;;;9.98;2.15;;;;;;;;;;5051010;28;20045;-62
2023/04/13 11:26:16;;;;;;;10.77;3.17;;;;;;;;;;5051593;28;20128;-62
2023/04/13 11:28:45;;;;;;;11.97;2.80;;;;;;;;;;5050858;28;20526;-62
2023/04/13 11:31:11;;;;;;;12.73;2.83;;;;;;;;;;5070726;28;20036;-62
2023/04/13 11:33:38;;;;;;;12.50;1.90;;;;;;;;;;5061175;28;20128;-62
2023/04/13 11:36:04;;;;;;;10.53;2.83;;;;;;;;;;5066453;28;20051;-62
2023/04/13 11:38:34;;;;;;;7.60;2.00;;;;;;;;;;5052649;28;20059;-62
2023/04/13 11:41:01;;;;;;;14.07;2.90;;;;;;;;;;5052427;28;20242;-62
2023/04/13 11:43:27;;;;;;;17.03;2.90;;;;;;;;;;5058283;28;20055;-62
2023/04/13 11:45:53;;;;;;;12.23;2.63;;;;;;;;;;5051183;28;20082;-62
2023/04/13 11:48:20;;;;;;;10.07;1.97;;;;;;;;;;5058279;28;20049;-62
2023/04/13 11:50:46;;;;;;;6.70;1.70;;;;;;;;;;5050553;28;20048;-62
2023/04/13 11:53:12;;;;;;;8.90;2.30;;;;;;;;;;5054312;28;20131;-62
2023/04/13 11:55:40;;;;;;;14.07;2.20;;;;;;;;;;5057813;28;20406;-61
2023/04/13 11:58:08;;;;;;;9.27;1.80;;;;;;;;;;5068104;28;20045;-62
2023/04/13 12:00:36;;;;;;;12.03;2.10;;;;;;;;;;5049237;28;20508;-61
2023/04/13 12:03:04;;;;;;;12.60;2.47;;;;;;;;;;5052997;28;20040;-61
2023/04/13 12:05:31;;;;;;;14.37;2.30;;;;;;;;;;5069078;28;20048;-61
2023/04/13 12:07:57;;;;;;;12.93;2.57;;;;;;;;;;5063889;28;20040;-61
2023/04/13 12:10:23;;;;;;;10.53;2.37;;;;;;;;;;5058876;28;20053;-61
2023/04/13 12:12:59;;;;;;;11.87;2.17;;;;;;;;;;5051253;28;20062;-61
2023/04/13 12:15:27;;;;;;;8.57;1.70;;;;;;;;;;5048448;28;20049;-62
2023/04/13 12:17:56;;;;;;;12.57;2.00;;;;;;;;;;5056787;28;20086;-62
2023/04/13 12:20:23;;;;;;;7.60;2.00;;;;;;;;;;5069304;28;20210;-62
2023/04/13 12:22:49;;;;;;;13.07;2.37;;;;;;;;;;5069961;28;20083;-61
2023/04/13 12:25:17;;;;;;;12.80;2.93;;;;;;;;;;5068701;28;20044;-62
2023/04/13 12:27:43;;;;;;;12.13;2.27;;;;;;;;;;5069046;28;20064;-62
2023/04/13 12:30:10;;;;;;;9.27;2.37;;;;;;;;;;5069599;28;20461;-61
2023/04/13 12:32:40;;;;;;;10.47;2.30;;;;;;;;;;5069515;28;20430;-61
2023/04/13 12:35:07;;;;;;;11.33;2.27;;;;;;;;;;5069223;28;20056;-61
2023/04/13 12:37:33;;;;;;;8.07;2.10;;;;;;;;;;5069641;28;20063;-61
2023/04/13 12:40:00;;;;;;;15.73;3.10;;;;;;;;;;5069263;28;20041;-61
2023/04/13 12:42:26;;;;;;;13.77;2.67;;;;;;;;;;5069635;28;20135;-61
2023/04/13 12:44:55;;;;;;;12.93;3.17;;;;;;;;;;5069334;28;20052;-62
2023/04/13 12:47:23;;;;;;;10.40;2.30;;;;;;;;;;5069540;28;20082;-61
2023/04/13 12:49:49;;;;;;;11.93;2.33;;;;;;;;;;5068920;28;20521;-61
2023/04/13 12:52:15;;;;;;;15.43;3.07;;;;;;;;;;5069591;28;20161;-61
2023/04/13 12:54:41;;;;;;;8.13;1.87;;;;;;;;;;5069124;28;20052;-61
2023/04/13 12:57:07;;;;;;;12.87;2.50;;;;;;;;;;5069567;28;20044;-61
2023/04/13 12:59:34;;;;;;;8.97;1.80;;;;;;;;;;5063452;28;20157;-61
2023/04/13 13:02:00;;;;;;;9.10;1.87;;;;;;;;;;5056348;28;20110;-61
2023/04/13 13:04:28;;;;;;;9.63;1.83;;;;;;;;;;5058296;28;20569;-61
2023/04/13 13:06:55;;;;;;;10.17;1.60;;;;;;;;;;5057483;28;20041;-61
2023/04/13 13:09:21;;;;;;;8.23;2.13;;;;;;;;;;5047311;28;20041;-60
2023/04/13 13:11:47;;;;;;;11.43;2.10;;;;;;;;;;5048631;28;20052;-61
2023/04/13 13:14:13;;;;;;;10.23;2.10;;;;;;;;;;5048604;28;20118;-61
2023/04/13 13:16:39;;;;;;;11.20;2.20;;;;;;;;;;5048714;28;20049;-61
2023/04/13 13:19:05;;;;;;;8.70;2.03;;;;;;;;;;5046692;28;20463;-61
2023/04/13 13:21:31;;;;;;;9.60;2.30;;;;;;;;;;5046746;28;20095;-61
2023/04/13 13:23:57;;;;;;;8.77;2.33;;;;;;;;;;5048077;28;20041;-61
2023/04/13 13:26:24;;;;;;;7.33;1.80;;;;;;;;;;5048140;28;20499;-60
2023/04/13 13:28:50;;;;;;;11.93;1.70;;;;;;;;;;5058478;28;20134;-60
2023/04/13 13:31:17;;;;;;;13.70;2.57;;;;;;;;;;5052804;28;20049;-61
2023/04/13 13:33:43;;;;;;;9.93;1.77;;;;;;;;;;5062582;28;20559;-61
2023/04/13 13:36:10;;;;;;;13.93;2.70;;;;;;;;;;5055199;28;20063;-60
2023/04/13 13:38:36;;;;;;;12.40;2.00;;;;;;;;;;5056249;28;20498;-60
2023/04/13 13:41:02;;;;;;;6.53;1.67;;;;;;;;;;5057984;28;20078;-60
2023/04/13 13:43:28;;;;;;;11.70;2.37;;;;;;;;;;5061134;28;20048;-60
2023/04/13 13:45:54;;;;;;;8.77;2.10;;;;;;;;;;5061782;28;20048;-60
2023/04/13 13:48:22;;;;;;;10.43;2.50;;;;;;;;;;5061885;28;20109;-60
2023/04/13 13:50:49;;;;;;;5.93;1.80;;;;;;;;;;5061047;28;20081;-61
2023/04/13 13:53:15;;;;;;;11.10;2.50;;;;;;;;;;5060477;28;20121;-60
2023/04/13 13:55:41;;;;;;;8.00;1.67;;;;;;;;;;5059589;28;20044;-60
2023/04/13 13:58:07;;;;;;;11.23;2.33;;;;;;;;;;5055238;28;20096;-60
2023/04/13 14:00:33;;;;;;;9.40;1.93;;;;;;;;;;5048846;28;20056;-60
2023/04/13 14:02:59;;;;;;;14.57;2.67;;;;;;;;;;5048628;28;20045;-60
2023/04/13 14:05:26;;;;;;;8.53;1.83;;;;;;;;;;5049137;28;20048;-60
2023/04/13 14:07:52;;;;;;;12.07;2.53;;;;;;;;;;5053450;28;20047;-60
2023/04/13 14:10:18;;;;;;;10.00;2.10;;;;;;;;;;5049705;28;20052;-60
2023/04/13 14:12:45;;;;;;;15.83;2.23;;;;;;;;;;5049012;28;20056;-60
2023/04/13 14:15:12;;;;;;;6.97;2.13;;;;;;;;;;5048710;28;20053;-61
2023/04/13 14:17:39;;;;;;;10.73;2.00;;;;;;;;;;5059351;28;20059;-60
2023/04/13 14:20:09;;;;;;;9.17;1.90;;;;;;;;;;5051796;28;20174;-60
2023/04/13 14:22:35;;;;;;;13.23;1.83;;;;;;;;;;5046952;28;20507;-60
2023/04/13 14:25:02;;;;;;;12.03;1.77;;;;;;;;;;5048441;28;20107;-61
2023/04/13 14:27:28;;;;;;;8.60;2.27;;;;;;;;;;5048499;28;20056;-60
2023/04/13 14:29:54;;;;;;;14.07;2.33;;;;;;;;;;5060908;28;20123;-60